sensor_id;sensor_type;location;lat;lon;timestamp;P1;durP1;ratioP1;P2;durP2;ratioP2
19782;SDS011;10051;40.294;-3.754;2023-01-25T00:01:58;6.50;;;3.80;;
19782;SDS011;10051;40.294;-3.754;2023-01-25T00:04:24;6.40;;;3.17;;
19782;SDS011;10051;40.294;-3.754;2023-01-25T00:06:50;6.63;;;3.60;;
19782;SDS011;10051;40.294;-3.754;2023-01-25T00:09:16;6.90;;;3.70;;
19782;SDS011;10051;40.294;-3.754;2023-01-25T00:11:42;9.70;;;3.80;;
19782;SDS011;10051;40.294;-3.754;2023-01-25T00:14:08;6.60;;;3.50;;
19782;SDS011;10051;40.294;-3.754;2023-01-25T00:16:35;5.67;;;3.57;;
19782;SDS011;10051;40.294;-3.754;2023-01-25T00:19:01;8.07;;;3.73;;
19782;SDS011;10051;40.294;-3.754;2023-01-25T00:21:27;7.37;;;3.60;;
19782;SDS011;10051;40.294;-3.754;2023-01-25T00:23:53;7.47;;;3.37;;
19782;SDS011;10051;40.294;-3.754;2023-01-25T00:26:18;6.90;;;3.60;;
19782;SDS011;10051;40.294;-3.754;2023-01-25T00:28:48;6.77;;;3.30;;
19782;SDS011;10051;40.294;-3.754;2023-01-25T00:31:16;6.60;;;3.77;;
19782;SDS011;10051;40.294;-3.754;2023-01-25T00:33:51;6.27;;;3.40;;
19782;SDS011;10051;40.294;-3.754;2023-01-25T00:38:49;6.47;;;3.47;;
19782;SDS011;10051;40.294;-3.754;2023-01-25T00:41:18;5.70;;;3.40;;
19782;SDS011;10051;40.294;-3.754;2023-01-25T00:43:43;6.23;;;3.20;;
19782;SDS011;10051;40.294;-3.754;2023-01-25T00:46:10;5.63;;;3.20;;
19782;SDS011;10051;40.294;-3.754;2023-01-25T00:48:40;7.20;;;3.70;;
19782;SDS011;10051;40.294;-3.754;2023-01-25T00:51:06;10.13;;;3.40;;
19782;SDS011;10051;40.294;-3.754;2023-01-25T00:53:32;8.50;;;3.70;;
19782;SDS011;10051;40.294;-3.754;2023-01-25T00:55:58;6.00;;;3.10;;
19782;SDS011;10051;40.294;-3.754;2023-01-25T00:58:23;6.93;;;3.50;;
19782;SDS011;10051;40.294;-3.754;2023-01-25T01:00:50;9.50;;;3.80;;
19782;SDS011;10051;40.294;-3.754;2023-01-25T01:03:17;5.67;;;3.40;;
19782;SDS011;10051;40.294;-3.754;2023-01-25T01:05:42;6.43;;;3.70;;
19782;SDS011;10051;40.294;-3.754;2023-01-25T01:08:08;6.67;;;3.60;;
19782;SDS011;10051;40.294;-3.754;2023-01-25T01:10:34;5.57;;;3.27;;
19782;SDS011;10051;40.294;-3.754;2023-01-25T01:13:00;6.00;;;3.57;;
19782;SDS011;10051;40.294;-3.754;2023-01-25T01:15:25;6.80;;;3.40;;
19782;SDS011;10051;40.294;-3.754;2023-01-25T01:17:51;5.63;;;3.50;;
19782;SDS011;10051;40.294;-3.754;2023-01-25T01:20:17;6.53;;;3.30;;
19782;SDS011;10051;40.294;-3.754;2023-01-25T01:22:42;5.57;;;3.40;;
19782;SDS011;10051;40.294;-3.754;2023-01-25T01:25:08;5.50;;;3.37;;
19782;SDS011;10051;40.294;-3.754;2023-01-25T01:27:34;6.07;;;3.27;;
19782;SDS011;10051;40.294;-3.754;2023-01-25T01:30:00;8.57;;;3.40;;
19782;SDS011;10051;40.294;-3.754;2023-01-25T01:32:26;6.83;;;3.20;;
19782;SDS011;10051;40.294;-3.754;2023-01-25T01:34:51;6.57;;;3.30;;
19782;SDS011;10051;40.294;-3.754;2023-01-25T01:37:17;6.37;;;3.30;;
19782;SDS011;10051;40.294;-3.754;2023-01-25T01:39:42;7.93;;;3.50;;
19782;SDS011;10051;40.294;-3.754;2023-01-25T01:42:08;7.57;;;3.67;;
19782;SDS011;10051;40.294;-3.754;2023-01-25T01:47:24;5.80;;;3.57;;
19782;SDS011;10051;40.294;-3.754;2023-01-25T01:49:57;8.53;;;3.40;;
19782;SDS011;10051;40.294;-3.754;2023-01-25T01:52:28;5.77;;;3.07;;
19782;SDS011;10051;40.294;-3.754;2023-01-25T01:57:47;6.23;;;3.37;;
19782;SDS011;10051;40.294;-3.754;2023-01-25T02:00:21;6.63;;;3.67;;
19782;SDS011;10051;40.294;-3.754;2023-01-25T02:02:56;7.43;;;3.37;;
19782;SDS011;10051;40.294;-3.754;2023-01-25T02:08:04;7.97;;;3.57;;
19782;SDS011;10051;40.294;-3.754;2023-01-25T02:10:33;6.73;;;3.43;;
19782;SDS011;10051;40.294;-3.754;2023-01-25T02:13:00;7.60;;;4.03;;
19782;SDS011;10051;40.294;-3.754;2023-01-25T02:15:31;9.30;;;3.33;;
19782;SDS011;10051;40.294;-3.754;2023-01-25T02:18:01;7.60;;;3.27;;
19782;SDS011;10051;40.294;-3.754;2023-01-25T02:20:28;7.73;;;3.53;;
19782;SDS011;10051;40.294;-3.754;2023-01-25T02:25:52;8.27;;;3.60;;
19782;SDS011;10051;40.294;-3.754;2023-01-25T02:28:21;6.90;;;3.53;;
19782;SDS011;10051;40.294;-3.754;2023-01-25T02:30:52;7.70;;;3.50;;
19782;SDS011;10051;40.294;-3.754;2023-01-25T02:33:17;6.93;;;3.40;;
19782;SDS011;10051;40.294;-3.754;2023-01-25T02:35:55;7.83;;;3.50;;
19782;SDS011;10051;40.294;-3.754;2023-01-25T02:38:25;5.87;;;3.20;;
19782;SDS011;10051;40.294;-3.754;2023-01-25T02:40:58;7.03;;;3.47;;
19782;SDS011;10051;40.294;-3.754;2023-01-25T02:43:28;6.13;;;3.60;;
19782;SDS011;10051;40.294;-3.754;2023-01-25T02:46:02;5.73;;;3.33;;
19782;SDS011;10051;40.294;-3.754;2023-01-25T02:48:42;6.63;;;3.43;;
19782;SDS011;10051;40.294;-3.754;2023-01-25T02:51:08;6.40;;;3.40;;
19782;SDS011;10051;40.294;-3.754;2023-01-25T02:53:35;6.37;;;3.40;;
19782;SDS011;10051;40.294;-3.754;2023-01-25T02:56:01;6.57;;;3.27;;
19782;SDS011;10051;40.294;-3.754;2023-01-25T02:58:26;6.97;;;3.53;;
19782;SDS011;10051;40.294;-3.754;2023-01-25T03:00:52;6.70;;;3.53;;
19782;SDS011;10051;40.294;-3.754;2023-01-25T03:03:19;5.50;;;3.23;;
19782;SDS011;10051;40.294;-3.754;2023-01-25T03:05:45;7.47;;;3.50;;
19782;SDS011;10051;40.294;-3.754;2023-01-25T03:08:10;7.53;;;3.70;;
19782;SDS011;10051;40.294;-3.754;2023-01-25T03:10:36;6.40;;;3.53;;
19782;SDS011;10051;40.294;-3.754;2023-01-25T03:13:01;6.43;;;3.50;;
19782;SDS011;10051;40.294;-3.754;2023-01-25T03:15:27;8.03;;;3.40;;
19782;SDS011;10051;40.294;-3.754;2023-01-25T03:17:54;6.17;;;3.47;;
19782;SDS011;10051;40.294;-3.754;2023-01-25T03:20:20;6.40;;;3.20;;
19782;SDS011;10051;40.294;-3.754;2023-01-25T03:22:46;7.67;;;3.80;;
19782;SDS011;10051;40.294;-3.754;2023-01-25T03:25:12;6.70;;;3.33;;
19782;SDS011;10051;40.294;-3.754;2023-01-25T03:27:37;6.37;;;3.27;;
19782;SDS011;10051;40.294;-3.754;2023-01-25T03:30:03;10.27;;;3.70;;
19782;SDS011;10051;40.294;-3.754;2023-01-25T03:32:29;6.50;;;3.37;;
19782;SDS011;10051;40.294;-3.754;2023-01-25T03:34:54;5.67;;;3.27;;
19782;SDS011;10051;40.294;-3.754;2023-01-25T03:37:20;5.60;;;3.37;;
19782;SDS011;10051;40.294;-3.754;2023-01-25T03:39:46;7.03;;;3.50;;
19782;SDS011;10051;40.294;-3.754;2023-01-25T03:42:11;9.37;;;4.50;;
19782;SDS011;10051;40.294;-3.754;2023-01-25T03:44:37;5.97;;;3.40;;
19782;SDS011;10051;40.294;-3.754;2023-01-25T03:47:03;6.10;;;3.40;;
19782;SDS011;10051;40.294;-3.754;2023-01-25T03:49:28;6.47;;;3.63;;
19782;SDS011;10051;40.294;-3.754;2023-01-25T03:51:54;9.00;;;3.83;;
19782;SDS011;10051;40.294;-3.754;2023-01-25T03:54:22;6.67;;;3.77;;
19782;SDS011;10051;40.294;-3.754;2023-01-25T03:56:47;7.53;;;3.50;;
19782;SDS011;10051;40.294;-3.754;2023-01-25T03:59:13;7.27;;;3.23;;
19782;SDS011;10051;40.294;-3.754;2023-01-25T04:01:39;7.70;;;3.43;;
19782;SDS011;10051;40.294;-3.754;2023-01-25T04:04:04;6.93;;;3.77;;
19782;SDS011;10051;40.294;-3.754;2023-01-25T04:06:30;8.43;;;3.80;;
19782;SDS011;10051;40.294;-3.754;2023-01-25T04:08:55;6.50;;;3.60;;
19782;SDS011;10051;40.294;-3.754;2023-01-25T04:11:21;5.87;;;3.40;;
19782;SDS011;10051;40.294;-3.754;2023-01-25T04:13:47;6.40;;;3.60;;
19782;SDS011;10051;40.294;-3.754;2023-01-25T04:16:12;6.87;;;3.60;;
19782;SDS011;10051;40.294;-3.754;2023-01-25T04:18:38;9.37;;;3.60;;
19782;SDS011;10051;40.294;-3.754;2023-01-25T04:21:04;7.93;;;3.93;;
19782;SDS011;10051;40.294;-3.754;2023-01-25T04:23:30;6.67;;;3.87;;
19782;SDS011;10051;40.294;-3.754;2023-01-25T04:25:57;7.10;;;3.43;;
19782;SDS011;10051;40.294;-3.754;2023-01-25T04:28:24;8.00;;;3.77;;
19782;SDS011;10051;40.294;-3.754;2023-01-25T04:30:50;7.30;;;3.40;;
19782;SDS011;10051;40.294;-3.754;2023-01-25T04:33:17;6.67;;;3.57;;
19782;SDS011;10051;40.294;-3.754;2023-01-25T04:35:43;7.13;;;3.67;;
19782;SDS011;10051;40.294;-3.754;2023-01-25T04:38:09;7.10;;;3.70;;
19782;SDS011;10051;40.294;-3.754;2023-01-25T04:40:36;8.03;;;4.30;;
19782;SDS011;10051;40.294;-3.754;2023-01-25T04:43:01;6.17;;;3.60;;
19782;SDS011;10051;40.294;-3.754;2023-01-25T04:45:27;8.20;;;3.73;;
19782;SDS011;10051;40.294;-3.754;2023-01-25T04:47:57;7.20;;;3.83;;
19782;SDS011;10051;40.294;-3.754;2023-01-25T04:50:26;8.10;;;3.93;;
19782;SDS011;10051;40.294;-3.754;2023-01-25T04:52:53;8.20;;;4.03;;
19782;SDS011;10051;40.294;-3.754;2023-01-25T04:55:19;8.53;;;4.23;;
19782;SDS011;10051;40.294;-3.754;2023-01-25T04:57:44;7.40;;;4.03;;
19782;SDS011;10051;40.294;-3.754;2023-01-25T05:00:12;7.60;;;3.97;;
19782;SDS011;10051;40.294;-3.754;2023-01-25T05:02:38;8.00;;;3.90;;
19782;SDS011;10051;40.294;-3.754;2023-01-25T05:05:04;7.63;;;3.77;;
19782;SDS011;10051;40.294;-3.754;2023-01-25T05:07:30;7.10;;;3.73;;
19782;SDS011;10051;40.294;-3.754;2023-01-25T05:09:55;8.17;;;3.80;;
19782;SDS011;10051;40.294;-3.754;2023-01-25T05:12:21;8.30;;;3.77;;
19782;SDS011;10051;40.294;-3.754;2023-01-25T05:14:47;8.93;;;3.83;;
19782;SDS011;10051;40.294;-3.754;2023-01-25T05:17:12;7.03;;;4.13;;
19782;SDS011;10051;40.294;-3.754;2023-01-25T05:19:38;8.20;;;3.93;;
19782;SDS011;10051;40.294;-3.754;2023-01-25T05:22:03;8.07;;;3.67;;
19782;SDS011;10051;40.294;-3.754;2023-01-25T05:24:32;6.27;;;3.83;;
19782;SDS011;10051;40.294;-3.754;2023-01-25T05:26:59;7.40;;;3.67;;
19782;SDS011;10051;40.294;-3.754;2023-01-25T05:29:32;6.63;;;3.60;;
19782;SDS011;10051;40.294;-3.754;2023-01-25T05:32:03;7.50;;;3.70;;
19782;SDS011;10051;40.294;-3.754;2023-01-25T05:34:29;8.83;;;3.73;;
19782;SDS011;10051;40.294;-3.754;2023-01-25T05:36:55;7.77;;;4.03;;
19782;SDS011;10051;40.294;-3.754;2023-01-25T05:39:21;7.37;;;3.90;;
19782;SDS011;10051;40.294;-3.754;2023-01-25T05:41:47;8.07;;;4.07;;
19782;SDS011;10051;40.294;-3.754;2023-01-25T05:44:12;8.40;;;3.93;;
19782;SDS011;10051;40.294;-3.754;2023-01-25T05:46:38;6.43;;;3.80;;
19782;SDS011;10051;40.294;-3.754;2023-01-25T05:49:04;8.60;;;3.80;;
19782;SDS011;10051;40.294;-3.754;2023-01-25T05:51:29;8.50;;;3.87;;
19782;SDS011;10051;40.294;-3.754;2023-01-25T05:53:55;9.73;;;4.60;;
19782;SDS011;10051;40.294;-3.754;2023-01-25T05:56:21;11.43;;;4.40;;
19782;SDS011;10051;40.294;-3.754;2023-01-25T05:58:46;8.03;;;4.00;;
19782;SDS011;10051;40.294;-3.754;2023-01-25T06:01:19;8.60;;;3.90;;
19782;SDS011;10051;40.294;-3.754;2023-01-25T06:03:46;8.33;;;4.17;;
19782;SDS011;10051;40.294;-3.754;2023-01-25T06:06:11;7.30;;;4.03;;
19782;SDS011;10051;40.294;-3.754;2023-01-25T06:08:37;8.40;;;4.07;;
19782;SDS011;10051;40.294;-3.754;2023-01-25T06:11:10;6.53;;;3.83;;
19782;SDS011;10051;40.294;-3.754;2023-01-25T06:13:41;6.63;;;3.70;;
19782;SDS011;10051;40.294;-3.754;2023-01-25T06:16:07;8.10;;;4.10;;
19782;SDS011;10051;40.294;-3.754;2023-01-25T06:18:33;7.90;;;4.17;;
19782;SDS011;10051;40.294;-3.754;2023-01-25T06:20:59;7.53;;;3.83;;
19782;SDS011;10051;40.294;-3.754;2023-01-25T06:23:26;7.50;;;3.90;;
19782;SDS011;10051;40.294;-3.754;2023-01-25T06:25:56;9.87;;;4.67;;
19782;SDS011;10051;40.294;-3.754;2023-01-25T06:28:22;10.77;;;5.07;;
19782;SDS011;10051;40.294;-3.754;2023-01-25T06:30:48;8.17;;;4.30;;
19782;SDS011;10051;40.294;-3.754;2023-01-25T06:33:14;7.43;;;4.07;;
19782;SDS011;10051;40.294;-3.754;2023-01-25T06:35:39;12.80;;;4.30;;
19782;SDS011;10051;40.294;-3.754;2023-01-25T06:38:05;7.53;;;4.13;;
19782;SDS011;10051;40.294;-3.754;2023-01-25T06:40:31;8.90;;;4.07;;
19782;SDS011;10051;40.294;-3.754;2023-01-25T06:43:06;11.07;;;4.90;;
19782;SDS011;10051;40.294;-3.754;2023-01-25T06:45:33;12.37;;;5.20;;
19782;SDS011;10051;40.294;-3.754;2023-01-25T06:47:58;14.63;;;5.67;;
19782;SDS011;10051;40.294;-3.754;2023-01-25T06:50:24;16.23;;;5.80;;
19782;SDS011;10051;40.294;-3.754;2023-01-25T06:52:51;15.33;;;5.97;;
19782;SDS011;10051;40.294;-3.754;2023-01-25T06:55:17;17.80;;;6.00;;
19782;SDS011;10051;40.294;-3.754;2023-01-25T06:57:43;12.87;;;4.93;;
19782;SDS011;10051;40.294;-3.754;2023-01-25T07:00:09;10.97;;;5.07;;
19782;SDS011;10051;40.294;-3.754;2023-01-25T07:02:35;9.63;;;4.20;;
19782;SDS011;10051;40.294;-3.754;2023-01-25T07:05:01;8.13;;;4.00;;
19782;SDS011;10051;40.294;-3.754;2023-01-25T07:07:27;9.10;;;4.33;;
19782;SDS011;10051;40.294;-3.754;2023-01-25T07:09:53;8.35;;;4.50;;
19782;SDS011;10051;40.294;-3.754;2023-01-25T07:12:18;10.03;;;4.23;;
19782;SDS011;10051;40.294;-3.754;2023-01-25T07:14:44;7.87;;;4.23;;
19782;SDS011;10051;40.294;-3.754;2023-01-25T07:17:12;10.67;;;4.33;;
19782;SDS011;10051;40.294;-3.754;2023-01-25T07:19:38;11.17;;;4.90;;
19782;SDS011;10051;40.294;-3.754;2023-01-25T07:22:03;10.53;;;5.10;;
19782;SDS011;10051;40.294;-3.754;2023-01-25T07:24:29;8.27;;;4.33;;
19782;SDS011;10051;40.294;-3.754;2023-01-25T07:26:54;14.17;;;4.83;;
19782;SDS011;10051;40.294;-3.754;2023-01-25T07:29:20;12.53;;;4.67;;
19782;SDS011;10051;40.294;-3.754;2023-01-25T07:31:46;8.37;;;4.60;;
19782;SDS011;10051;40.294;-3.754;2023-01-25T07:34:12;8.93;;;4.83;;
19782;SDS011;10051;40.294;-3.754;2023-01-25T07:36:38;11.03;;;4.80;;
19782;SDS011;10051;40.294;-3.754;2023-01-25T07:39:05;11.57;;;4.90;;
19782;SDS011;10051;40.294;-3.754;2023-01-25T07:41:33;11.77;;;5.20;;
19782;SDS011;10051;40.294;-3.754;2023-01-25T07:43:59;12.87;;;4.33;;
19782;SDS011;10051;40.294;-3.754;2023-01-25T07:46:24;10.43;;;4.83;;
19782;SDS011;10051;40.294;-3.754;2023-01-25T07:48:50;12.90;;;4.60;;
19782;SDS011;10051;40.294;-3.754;2023-01-25T07:51:18;10.77;;;5.13;;
19782;SDS011;10051;40.294;-3.754;2023-01-25T07:54:09;14.90;;;5.03;;
19782;SDS011;10051;40.294;-3.754;2023-01-25T07:56:35;14.03;;;4.70;;
19782;SDS011;10051;40.294;-3.754;2023-01-25T07:59:02;10.07;;;4.77;;
19782;SDS011;10051;40.294;-3.754;2023-01-25T08:01:29;11.60;;;4.93;;
19782;SDS011;10051;40.294;-3.754;2023-01-25T08:03:59;10.77;;;5.20;;
19782;SDS011;10051;40.294;-3.754;2023-01-25T08:06:27;11.10;;;5.10;;
19782;SDS011;10051;40.294;-3.754;2023-01-25T08:09:01;10.27;;;5.20;;
19782;SDS011;10051;40.294;-3.754;2023-01-25T08:11:29;9.07;;;5.03;;
19782;SDS011;10051;40.294;-3.754;2023-01-25T08:13:56;12.80;;;5.50;;
19782;SDS011;10051;40.294;-3.754;2023-01-25T08:16:23;10.37;;;4.87;;
19782;SDS011;10051;40.294;-3.754;2023-01-25T08:18:53;10.93;;;5.30;;
19782;SDS011;10051;40.294;-3.754;2023-01-25T08:21:20;11.27;;;5.50;;
19782;SDS011;10051;40.294;-3.754;2023-01-25T08:23:49;11.57;;;5.50;;
19782;SDS011;10051;40.294;-3.754;2023-01-25T08:26:15;10.87;;;5.43;;
19782;SDS011;10051;40.294;-3.754;2023-01-25T08:28:43;10.50;;;5.40;;
19782;SDS011;10051;40.294;-3.754;2023-01-25T08:31:11;11.10;;;5.80;;
19782;SDS011;10051;40.294;-3.754;2023-01-25T08:33:37;11.67;;;5.57;;
19782;SDS011;10051;40.294;-3.754;2023-01-25T08:36:03;10.73;;;5.63;;
19782;SDS011;10051;40.294;-3.754;2023-01-25T08:38:30;13.63;;;5.93;;
19782;SDS011;10051;40.294;-3.754;2023-01-25T08:41:03;14.10;;;6.10;;
19782;SDS011;10051;40.294;-3.754;2023-01-25T08:43:30;12.77;;;5.87;;
19782;SDS011;10051;40.294;-3.754;2023-01-25T08:45:56;11.97;;;6.10;;
19782;SDS011;10051;40.294;-3.754;2023-01-25T08:48:22;12.03;;;5.77;;
19782;SDS011;10051;40.294;-3.754;2023-01-25T08:50:48;13.00;;;6.07;;
19782;SDS011;10051;40.294;-3.754;2023-01-25T08:53:13;12.50;;;6.00;;
19782;SDS011;10051;40.294;-3.754;2023-01-25T08:55:39;14.00;;;6.03;;
19782;SDS011;10051;40.294;-3.754;2023-01-25T08:58:10;12.50;;;6.43;;
19782;SDS011;10051;40.294;-3.754;2023-01-25T09:00:40;12.20;;;5.53;;
19782;SDS011;10051;40.294;-3.754;2023-01-25T09:03:07;11.43;;;5.90;;
19782;SDS011;10051;40.294;-3.754;2023-01-25T09:05:34;14.57;;;6.27;;
19782;SDS011;10051;40.294;-3.754;2023-01-25T09:08:00;11.73;;;5.47;;
19782;SDS011;10051;40.294;-3.754;2023-01-25T09:10:26;15.70;;;6.03;;
19782;SDS011;10051;40.294;-3.754;2023-01-25T09:12:52;12.57;;;5.83;;
19782;SDS011;10051;40.294;-3.754;2023-01-25T09:15:17;10.63;;;5.73;;
19782;SDS011;10051;40.294;-3.754;2023-01-25T09:17:43;8.83;;;5.10;;
19782;SDS011;10051;40.294;-3.754;2023-01-25T09:20:09;12.17;;;4.97;;
19782;SDS011;10051;40.294;-3.754;2023-01-25T09:22:35;9.33;;;4.93;;
19782;SDS011;10051;40.294;-3.754;2023-01-25T09:25:01;11.13;;;4.93;;
19782;SDS011;10051;40.294;-3.754;2023-01-25T09:27:27;9.77;;;5.00;;
19782;SDS011;10051;40.294;-3.754;2023-01-25T09:29:53;8.13;;;4.90;;
19782;SDS011;10051;40.294;-3.754;2023-01-25T09:32:18;8.57;;;4.77;;
19782;SDS011;10051;40.294;-3.754;2023-01-25T09:34:44;11.00;;;4.80;;
19782;SDS011;10051;40.294;-3.754;2023-01-25T09:37:10;8.53;;;4.43;;
19782;SDS011;10051;40.294;-3.754;2023-01-25T09:39:35;9.03;;;4.70;;
19782;SDS011;10051;40.294;-3.754;2023-01-25T09:47:23;10.93;;;4.93;;
19782;SDS011;10051;40.294;-3.754;2023-01-25T09:52:37;9.37;;;4.70;;
19782;SDS011;10051;40.294;-3.754;2023-01-25T09:55:31;8.00;;;4.53;;
19782;SDS011;10051;40.294;-3.754;2023-01-25T09:57:58;10.50;;;4.53;;
19782;SDS011;10051;40.294;-3.754;2023-01-25T10:00:27;10.13;;;4.43;;
19782;SDS011;10051;40.294;-3.754;2023-01-25T10:05:50;8.30;;;4.30;;
19782;SDS011;10051;40.294;-3.754;2023-01-25T10:08:23;9.60;;;4.50;;
19782;SDS011;10051;40.294;-3.754;2023-01-25T10:11:13;10.10;;;4.70;;
19782;SDS011;10051;40.294;-3.754;2023-01-25T10:13:48;11.00;;;4.83;;
19782;SDS011;10051;40.294;-3.754;2023-01-25T10:16:57;9.40;;;4.80;;
19782;SDS011;10051;40.294;-3.754;2023-01-25T10:22:16;8.73;;;4.33;;
19782;SDS011;10051;40.294;-3.754;2023-01-25T10:24:51;10.43;;;4.40;;
19782;SDS011;10051;40.294;-3.754;2023-01-25T10:30:18;7.10;;;3.77;;
19782;SDS011;10051;40.294;-3.754;2023-01-25T10:33:16;10.90;;;3.77;;
19782;SDS011;10051;40.294;-3.754;2023-01-25T10:35:44;16.17;;;6.07;;
19782;SDS011;10051;40.294;-3.754;2023-01-25T10:41:08;9.23;;;4.03;;
19782;SDS011;10051;40.294;-3.754;2023-01-25T10:43:41;7.80;;;3.90;;
19782;SDS011;10051;40.294;-3.754;2023-01-25T10:46:20;6.63;;;3.60;;
19782;SDS011;10051;40.294;-3.754;2023-01-25T10:48:49;8.33;;;4.20;;
19782;SDS011;10051;40.294;-3.754;2023-01-25T10:51:31;9.40;;;3.80;;
19782;SDS011;10051;40.294;-3.754;2023-01-25T10:54:03;7.90;;;3.90;;
19782;SDS011;10051;40.294;-3.754;2023-01-25T10:56:33;6.53;;;4.10;;
19782;SDS011;10051;40.294;-3.754;2023-01-25T11:01:51;5.73;;;3.30;;
19782;SDS011;10051;40.294;-3.754;2023-01-25T11:04:28;7.80;;;3.37;;
19782;SDS011;10051;40.294;-3.754;2023-01-25T11:06:56;6.13;;;3.47;;
19782;SDS011;10051;40.294;-3.754;2023-01-25T11:09:32;8.47;;;3.53;;
19782;SDS011;10051;40.294;-3.754;2023-01-25T11:12:01;6.07;;;3.50;;
19782;SDS011;10051;40.294;-3.754;2023-01-25T11:14:31;7.77;;;3.73;;
19782;SDS011;10051;40.294;-3.754;2023-01-25T11:16:58;7.50;;;3.90;;
19782;SDS011;10051;40.294;-3.754;2023-01-25T11:19:33;8.57;;;3.27;;
19782;SDS011;10051;40.294;-3.754;2023-01-25T11:24:44;5.60;;;3.10;;
19782;SDS011;10051;40.294;-3.754;2023-01-25T11:27:18;5.93;;;3.00;;
19782;SDS011;10051;40.294;-3.754;2023-01-25T11:30:09;7.50;;;3.00;;
19782;SDS011;10051;40.294;-3.754;2023-01-25T11:32:38;5.17;;;3.10;;
19782;SDS011;10051;40.294;-3.754;2023-01-25T11:35:15;4.97;;;2.90;;
19782;SDS011;10051;40.294;-3.754;2023-01-25T11:37:52;4.67;;;2.40;;
19782;SDS011;10051;40.294;-3.754;2023-01-25T11:40:31;5.10;;;2.53;;
19782;SDS011;10051;40.294;-3.754;2023-01-25T11:46:15;3.77;;;2.20;;
19782;SDS011;10051;40.294;-3.754;2023-01-25T12:30:29;5.88;;;3.03;;
19782;SDS011;10051;40.294;-3.754;2023-01-25T12:33:01;8.45;;;2.72;;
19782;SDS011;10051;40.294;-3.754;2023-01-25T12:35:35;7.00;;;2.80;;
19782;SDS011;10051;40.294;-3.754;2023-01-25T12:38:13;4.70;;;2.70;;
19782;SDS011;10051;40.294;-3.754;2023-01-25T12:40:50;6.00;;;3.20;;
19782;SDS011;10051;40.294;-3.754;2023-01-25T12:43:21;6.32;;;3.10;;
19782;SDS011;10051;40.294;-3.754;2023-01-25T12:45:52;9.32;;;2.90;;
19782;SDS011;10051;40.294;-3.754;2023-01-25T12:48:29;4.63;;;2.92;;
19782;SDS011;10051;40.294;-3.754;2023-01-25T12:51:00;4.28;;;2.60;;
19782;SDS011;10051;40.294;-3.754;2023-01-25T12:53:28;4.25;;;3.05;;
19782;SDS011;10051;40.294;-3.754;2023-01-25T12:56:06;6.68;;;2.90;;
19782;SDS011;10051;40.294;-3.754;2023-01-25T12:58:51;4.40;;;2.40;;
19782;SDS011;10051;40.294;-3.754;2023-01-25T13:04:13;5.43;;;2.80;;
19782;SDS011;10051;40.294;-3.754;2023-01-25T13:11:46;5.05;;;2.20;;
19782;SDS011;10051;40.294;-3.754;2023-01-25T13:21:54;5.22;;;2.40;;
19782;SDS011;10051;40.294;-3.754;2023-01-25T13:26:56;4.90;;;2.50;;
19782;SDS011;10051;40.294;-3.754;2023-01-25T13:32:11;3.35;;;2.03;;
19782;SDS011;10051;40.294;-3.754;2023-01-25T13:37:27;2.85;;;1.70;;
19782;SDS011;10051;40.294;-3.754;2023-01-25T13:39:57;2.75;;;1.70;;
19782;SDS011;10051;40.294;-3.754;2023-01-25T13:43:15;1.95;;;1.30;;
19782;SDS011;10051;40.294;-3.754;2023-01-25T13:45:43;2.65;;;1.40;;
19782;SDS011;10051;40.294;-3.754;2023-01-25T13:48:14;3.08;;;1.70;;
19782;SDS011;10051;40.294;-3.754;2023-01-25T13:53:25;4.10;;;2.00;;
19782;SDS011;10051;40.294;-3.754;2023-01-25T13:55:56;3.03;;;2.00;;
19782;SDS011;10051;40.294;-3.754;2023-01-25T13:58:27;6.75;;;2.40;;
19782;SDS011;10051;40.294;-3.754;2023-01-25T14:01:05;3.75;;;1.85;;
19782;SDS011;10051;40.294;-3.754;2023-01-25T14:03:43;3.88;;;1.92;;
19782;SDS011;10051;40.294;-3.754;2023-01-25T14:06:18;5.30;;;1.88;;
19782;SDS011;10051;40.294;-3.754;2023-01-25T14:08:46;3.65;;;1.60;;
19782;SDS011;10051;40.294;-3.754;2023-01-25T14:11:18;2.70;;;1.42;;
19782;SDS011;10051;40.294;-3.754;2023-01-25T14:13:59;3.10;;;1.48;;
19782;SDS011;10051;40.294;-3.754;2023-01-25T14:16:41;3.65;;;1.25;;
19782;SDS011;10051;40.294;-3.754;2023-01-25T14:21:46;4.32;;;1.40;;
19782;SDS011;10051;40.294;-3.754;2023-01-25T14:24:13;1.77;;;1.20;;
19782;SDS011;10051;40.294;-3.754;2023-01-25T14:26:42;3.17;;;1.20;;
19782;SDS011;10051;40.294;-3.754;2023-01-25T14:29:14;2.40;;;1.10;;
19782;SDS011;10051;40.294;-3.754;2023-01-25T14:31:42;2.40;;;1.20;;
19782;SDS011;10051;40.294;-3.754;2023-01-25T14:34:17;3.13;;;1.17;;
19782;SDS011;10051;40.294;-3.754;2023-01-25T14:36:44;2.65;;;1.20;;
19782;SDS011;10051;40.294;-3.754;2023-01-25T14:39:29;1.80;;;1.00;;
19782;SDS011;10051;40.294;-3.754;2023-01-25T14:41:57;1.70;;;1.00;;
19782;SDS011;10051;40.294;-3.754;2023-01-25T14:44:23;4.45;;;1.70;;
19782;SDS011;10051;40.294;-3.754;2023-01-25T14:46:54;1.70;;;1.05;;
19782;SDS011;10051;40.294;-3.754;2023-01-25T14:49:50;2.22;;;1.10;;
19782;SDS011;10051;40.294;-3.754;2023-01-25T14:52:16;2.58;;;0.95;;
19782;SDS011;10051;40.294;-3.754;2023-01-25T14:54:54;3.30;;;1.00;;
19782;SDS011;10051;40.294;-3.754;2023-01-25T15:00:05;1.98;;;1.00;;
19782;SDS011;10051;40.294;-3.754;2023-01-25T15:02:48;2.60;;;1.20;;
19782;SDS011;10051;40.294;-3.754;2023-01-25T15:05:20;3.17;;;1.10;;
19782;SDS011;10051;40.294;-3.754;2023-01-25T15:08:15;2.53;;;1.20;;
19782;SDS011;10051;40.294;-3.754;2023-01-25T15:10:51;1.48;;;1.00;;
19782;SDS011;10051;40.294;-3.754;2023-01-25T15:13:20;2.35;;;1.17;;
19782;SDS011;10051;40.294;-3.754;2023-01-25T15:15:49;3.38;;;1.23;;
19782;SDS011;10051;40.294;-3.754;2023-01-25T15:18:40;3.17;;;1.13;;
19782;SDS011;10051;40.294;-3.754;2023-01-25T15:21:09;2.33;;;1.10;;
19782;SDS011;10051;40.294;-3.754;2023-01-25T15:23:38;4.72;;;2.10;;
19782;SDS011;10051;40.294;-3.754;2023-01-25T15:26:11;2.53;;;1.52;;
19782;SDS011;10051;40.294;-3.754;2023-01-25T15:28:44;4.88;;;1.60;;
19782;SDS011;10051;40.294;-3.754;2023-01-25T15:31:14;7.43;;;2.20;;
19782;SDS011;10051;40.294;-3.754;2023-01-25T15:33:56;5.22;;;3.15;;
19782;SDS011;10051;40.294;-3.754;2023-01-25T15:36:22;6.45;;;3.20;;
19782;SDS011;10051;40.294;-3.754;2023-01-25T15:38:48;5.25;;;2.90;;
19782;SDS011;10051;40.294;-3.754;2023-01-25T15:41:14;5.38;;;2.58;;
19782;SDS011;10051;40.294;-3.754;2023-01-25T15:43:42;3.70;;;2.15;;
19782;SDS011;10051;40.294;-3.754;2023-01-25T15:46:18;4.53;;;1.83;;
19782;SDS011;10051;40.294;-3.754;2023-01-25T15:48:45;3.13;;;1.60;;
19782;SDS011;10051;40.294;-3.754;2023-01-25T15:51:12;4.30;;;2.05;;
19782;SDS011;10051;40.294;-3.754;2023-01-25T15:53:38;4.75;;;2.30;;
19782;SDS011;10051;40.294;-3.754;2023-01-25T15:56:04;4.05;;;2.08;;
19782;SDS011;10051;40.294;-3.754;2023-01-25T15:58:36;2.80;;;1.80;;
19782;SDS011;10051;40.294;-3.754;2023-01-25T16:01:04;4.13;;;1.75;;
19782;SDS011;10051;40.294;-3.754;2023-01-25T16:03:30;4.63;;;1.90;;
19782;SDS011;10051;40.294;-3.754;2023-01-25T16:06:00;3.58;;;1.83;;
19782;SDS011;10051;40.294;-3.754;2023-01-25T16:08:35;6.60;;;1.70;;
19782;SDS011;10051;40.294;-3.754;2023-01-25T16:11:00;2.70;;;1.70;;
19782;SDS011;10051;40.294;-3.754;2023-01-25T16:13:26;4.28;;;2.00;;
19782;SDS011;10051;40.294;-3.754;2023-01-25T16:15:52;5.78;;;2.90;;
19782;SDS011;10051;40.294;-3.754;2023-01-25T16:18:20;6.20;;;3.20;;
19782;SDS011;10051;40.294;-3.754;2023-01-25T16:20:45;6.57;;;3.40;;
19782;SDS011;10051;40.294;-3.754;2023-01-25T16:23:11;6.45;;;3.50;;
19782;SDS011;10051;40.294;-3.754;2023-01-25T16:25:38;7.63;;;3.80;;
19782;SDS011;10051;40.294;-3.754;2023-01-25T16:28:04;9.80;;;3.60;;
19782;SDS011;10051;40.294;-3.754;2023-01-25T16:30:30;4.43;;;2.30;;
19782;SDS011;10051;40.294;-3.754;2023-01-25T16:32:58;6.47;;;2.08;;
19782;SDS011;10051;40.294;-3.754;2023-01-25T16:35:24;4.03;;;1.80;;
19782;SDS011;10051;40.294;-3.754;2023-01-25T16:37:50;3.67;;;1.70;;